sensor_id;sensor_type;location;lat;lon;timestamp;P1;durP1;ratioP1;P2;durP2;ratioP2
27895;SDS011;15241;48.374;10.876;2023-06-10T00:00:09;8.53;;;7.42;;
27895;SDS011;15241;48.374;10.876;2023-06-10T00:05:10;7.65;;;6.87;;
27895;SDS011;15241;48.374;10.876;2023-06-10T00:10:10;8.58;;;7.60;;
27895;SDS011;15241;48.374;10.876;2023-06-10T00:15:11;8.75;;;7.72;;
27895;SDS011;15241;48.374;10.876;2023-06-10T00:20:11;9.95;;;8.25;;
27895;SDS011;15241;48.374;10.876;2023-06-10T00:25:10;10.98;;;7.50;;
27895;SDS011;15241;48.374;10.876;2023-06-10T00:30:11;9.20;;;7.03;;
27895;SDS011;15241;48.374;10.876;2023-06-10T00:35:10;7.67;;;6.92;;
27895;SDS011;15241;48.374;10.876;2023-06-10T00:40:10;7.90;;;7.10;;
27895;SDS011;15241;48.374;10.876;2023-06-10T00:45:11;7.85;;;7.05;;
27895;SDS011;15241;48.374;10.876;2023-06-10T00:50:10;8.55;;;6.95;;
27895;SDS011;15241;48.374;10.876;2023-06-10T00:55:09;8.50;;;7.50;;
27895;SDS011;15241;48.374;10.876;2023-06-10T01:00:10;8.73;;;7.53;;
27895;SDS011;15241;48.374;10.876;2023-06-10T01:05:11;8.83;;;7.95;;
27895;SDS011;15241;48.374;10.876;2023-06-10T01:10:11;9.45;;;7.60;;
27895;SDS011;15241;48.374;10.876;2023-06-10T01:15:12;9.08;;;7.67;;
27895;SDS011;15241;48.374;10.876;2023-06-10T01:20:12;9.33;;;7.53;;
27895;SDS011;15241;48.374;10.876;2023-06-10T01:25:12;8.43;;;7.37;;
27895;SDS011;15241;48.374;10.876;2023-06-10T01:30:14;7.80;;;7.00;;
27895;SDS011;15241;48.374;10.876;2023-06-10T01:35:15;9.50;;;8.45;;
27895;SDS011;15241;48.374;10.876;2023-06-10T01:40:15;8.38;;;7.15;;
27895;SDS011;15241;48.374;10.876;2023-06-10T01:45:14;8.98;;;8.08;;
27895;SDS011;15241;48.374;10.876;2023-06-10T01:50:13;9.85;;;7.70;;
27895;SDS011;15241;48.374;10.876;2023-06-10T01:55:12;8.48;;;7.65;;
27895;SDS011;15241;48.374;10.876;2023-06-10T02:00:13;9.48;;;7.92;;
27895;SDS011;15241;48.374;10.876;2023-06-10T02:05:13;8.75;;;7.90;;
27895;SDS011;15241;48.374;10.876;2023-06-10T02:10:12;8.43;;;7.62;;
27895;SDS011;15241;48.374;10.876;2023-06-10T02:15:11;9.03;;;8.13;;
27895;SDS011;15241;48.374;10.876;2023-06-10T02:20:12;10.30;;;8.00;;
27895;SDS011;15241;48.374;10.876;2023-06-10T02:25:10;8.25;;;7.45;;
27895;SDS011;15241;48.374;10.876;2023-06-10T02:30:11;8.05;;;7.25;;
27895;SDS011;15241;48.374;10.876;2023-06-10T02:35:10;10.15;;;7.60;;
27895;SDS011;15241;48.374;10.876;2023-06-10T02:40:11;10.43;;;7.78;;
27895;SDS011;15241;48.374;10.876;2023-06-10T02:45:10;8.80;;;8.00;;
27895;SDS011;15241;48.374;10.876;2023-06-10T02:50:10;9.13;;;7.53;;
27895;SDS011;15241;48.374;10.876;2023-06-10T02:55:11;8.88;;;8.03;;
27895;SDS011;15241;48.374;10.876;2023-06-10T03:00:11;8.80;;;7.47;;
27895;SDS011;15241;48.374;10.876;2023-06-10T03:05:11;8.95;;;8.05;;
27895;SDS011;15241;48.374;10.876;2023-06-10T03:10:10;9.23;;;8.30;;
27895;SDS011;15241;48.374;10.876;2023-06-10T03:15:09;9.00;;;7.78;;
27895;SDS011;15241;48.374;10.876;2023-06-10T03:20:09;9.18;;;8.05;;
27895;SDS011;15241;48.374;10.876;2023-06-10T03:25:09;9.38;;;8.28;;
27895;SDS011;15241;48.374;10.876;2023-06-10T03:30:09;13.22;;;8.33;;
27895;SDS011;15241;48.374;10.876;2023-06-10T03:35:10;9.23;;;7.83;;
27895;SDS011;15241;48.374;10.876;2023-06-10T03:40:09;9.15;;;8.08;;
27895;SDS011;15241;48.374;10.876;2023-06-10T03:45:09;9.70;;;8.70;;
27895;SDS011;15241;48.374;10.876;2023-06-10T03:50:09;10.63;;;7.72;;
27895;SDS011;15241;48.374;10.876;2023-06-10T03:55:09;9.88;;;8.53;;
27895;SDS011;15241;48.374;10.876;2023-06-10T04:00:08;9.65;;;8.65;;
27895;SDS011;15241;48.374;10.876;2023-06-10T04:05:09;10.10;;;8.48;;
27895;SDS011;15241;48.374;10.876;2023-06-10T04:10:09;10.60;;;8.75;;
27895;SDS011;15241;48.374;10.876;2023-06-10T04:15:09;9.65;;;8.63;;
27895;SDS011;15241;48.374;10.876;2023-06-10T04:20:08;9.18;;;8.28;;
27895;SDS011;15241;48.374;10.876;2023-06-10T04:25:08;9.63;;;8.53;;
27895;SDS011;15241;48.374;10.876;2023-06-10T04:30:16;8.73;;;7.85;;
27895;SDS011;15241;48.374;10.876;2023-06-10T04:35:15;10.40;;;8.00;;
27895;SDS011;15241;48.374;10.876;2023-06-10T04:40:14;9.40;;;7.62;;
27895;SDS011;15241;48.374;10.876;2023-06-10T04:45:13;11.28;;;7.50;;
27895;SDS011;15241;48.374;10.876;2023-06-10T04:50:12;7.92;;;7.00;;
27895;SDS011;15241;48.374;10.876;2023-06-10T04:55:11;11.25;;;8.30;;
27895;SDS011;15241;48.374;10.876;2023-06-10T05:00:11;8.58;;;7.72;;
27895;SDS011;15241;48.374;10.876;2023-06-10T05:05:10;8.40;;;7.35;;
27895;SDS011;15241;48.374;10.876;2023-06-10T05:10:10;8.45;;;7.60;;
27895;SDS011;15241;48.374;10.876;2023-06-10T05:15:10;9.30;;;7.67;;
27895;SDS011;15241;48.374;10.876;2023-06-10T05:20:11;8.65;;;7.75;;
27895;SDS011;15241;48.374;10.876;2023-06-10T05:25:10;7.83;;;7.03;;
27895;SDS011;15241;48.374;10.876;2023-06-10T05:30:10;9.38;;;7.58;;
27895;SDS011;15241;48.374;10.876;2023-06-10T05:35:10;8.98;;;7.08;;
27895;SDS011;15241;48.374;10.876;2023-06-10T05:40:10;9.30;;;7.67;;
27895;SDS011;15241;48.374;10.876;2023-06-10T05:45:10;9.98;;;7.80;;
27895;SDS011;15241;48.374;10.876;2023-06-10T05:50:10;8.78;;;7.90;;
27895;SDS011;15241;48.374;10.876;2023-06-10T05:55:09;8.78;;;7.10;;
27895;SDS011;15241;48.374;10.876;2023-06-10T06:00:09;8.85;;;7.40;;
27895;SDS011;15241;48.374;10.876;2023-06-10T06:05:10;8.60;;;7.55;;
27895;SDS011;15241;48.374;10.876;2023-06-10T06:10:09;7.72;;;7.03;;
27895;SDS011;15241;48.374;10.876;2023-06-10T06:15:10;9.23;;;7.22;;
27895;SDS011;15241;48.374;10.876;2023-06-10T06:20:09;8.05;;;7.25;;
27895;SDS011;15241;48.374;10.876;2023-06-10T06:25:09;8.28;;;7.37;;
27895;SDS011;15241;48.374;10.876;2023-06-10T06:30:09;7.95;;;7.25;;
27895;SDS011;15241;48.374;10.876;2023-06-10T06:35:08;7.75;;;6.97;;
27895;SDS011;15241;48.374;10.876;2023-06-10T06:40:08;8.35;;;7.55;;
27895;SDS011;15241;48.374;10.876;2023-06-10T06:45:09;7.37;;;6.67;;
27895;SDS011;15241;48.374;10.876;2023-06-10T06:50:09;12.73;;;7.40;;
27895;SDS011;15241;48.374;10.876;2023-06-10T06:55:08;7.90;;;6.20;;
27895;SDS011;15241;48.374;10.876;2023-06-10T07:00:08;8.23;;;7.20;;
27895;SDS011;15241;48.374;10.876;2023-06-10T07:05:08;9.35;;;7.50;;
27895;SDS011;15241;48.374;10.876;2023-06-10T07:10:08;7.97;;;7.10;;
27895;SDS011;15241;48.374;10.876;2023-06-10T07:15:08;7.00;;;6.30;;
27895;SDS011;15241;48.374;10.876;2023-06-10T07:20:08;8.58;;;6.65;;
27895;SDS011;15241;48.374;10.876;2023-06-10T07:25:08;7.97;;;6.62;;
27895;SDS011;15241;48.374;10.876;2023-06-10T07:30:08;7.47;;;6.70;;
27895;SDS011;15241;48.374;10.876;2023-06-10T07:35:08;8.03;;;6.90;;
27895;SDS011;15241;48.374;10.876;2023-06-10T07:40:08;8.45;;;6.37;;
27895;SDS011;15241;48.374;10.876;2023-06-10T07:45:08;7.45;;;6.72;;
27895;SDS011;15241;48.374;10.876;2023-06-10T07:50:08;9.45;;;6.33;;
27895;SDS011;15241;48.374;10.876;2023-06-10T07:55:08;7.62;;;6.58;;
27895;SDS011;15241;48.374;10.876;2023-06-10T08:00:07;6.97;;;6.22;;
27895;SDS011;15241;48.374;10.876;2023-06-10T08:05:08;6.65;;;5.45;;
27895;SDS011;15241;48.374;10.876;2023-06-10T08:10:07;5.62;;;5.12;;
27895;SDS011;15241;48.374;10.876;2023-06-10T08:15:10;6.45;;;5.85;;
27895;SDS011;15241;48.374;10.876;2023-06-10T08:20:09;6.12;;;5.53;;
27895;SDS011;15241;48.374;10.876;2023-06-10T08:25:09;6.20;;;5.33;;
27895;SDS011;15241;48.374;10.876;2023-06-10T08:30:09;4.85;;;4.45;;
27895;SDS011;15241;48.374;10.876;2023-06-10T08:35:09;4.78;;;4.12;;
27895;SDS011;15241;48.374;10.876;2023-06-10T08:40:08;5.20;;;4.70;;
27895;SDS011;15241;48.374;10.876;2023-06-10T08:45:09;5.40;;;4.55;;
27895;SDS011;15241;48.374;10.876;2023-06-10T08:50:10;5.40;;;4.40;;
27895;SDS011;15241;48.374;10.876;2023-06-10T08:55:10;5.22;;;4.47;;
27895;SDS011;15241;48.374;10.876;2023-06-10T09:00:11;5.35;;;4.42;;
27895;SDS011;15241;48.374;10.876;2023-06-10T09:05:12;5.37;;;4.87;;
27895;SDS011;15241;48.374;10.876;2023-06-10T09:10:12;8.98;;;4.40;;
27895;SDS011;15241;48.374;10.876;2023-06-10T09:15:11;6.95;;;4.87;;
27895;SDS011;15241;48.374;10.876;2023-06-10T09:20:11;5.08;;;4.62;;
27895;SDS011;15241;48.374;10.876;2023-06-10T09:25:10;7.60;;;5.58;;
27895;SDS011;15241;48.374;10.876;2023-06-10T09:30:12;5.28;;;4.87;;
27895;SDS011;15241;48.374;10.876;2023-06-10T09:35:18;5.03;;;4.53;;
27895;SDS011;15241;48.374;10.876;2023-06-10T09:40:17;5.33;;;4.83;;
27895;SDS011;15241;48.374;10.876;2023-06-10T09:45:16;5.12;;;4.72;;
27895;SDS011;15241;48.374;10.876;2023-06-10T09:50:15;4.50;;;4.10;;
27895;SDS011;15241;48.374;10.876;2023-06-10T09:55:14;4.72;;;4.22;;
27895;SDS011;15241;48.374;10.876;2023-06-10T10:00:15;4.65;;;4.25;;
27895;SDS011;15241;48.374;10.876;2023-06-10T10:05:14;4.22;;;3.85;;
27895;SDS011;15241;48.374;10.876;2023-06-10T10:10:15;4.37;;;3.98;;
27895;SDS011;15241;48.374;10.876;2023-06-10T10:15:15;4.60;;;4.00;;
27895;SDS011;15241;48.374;10.876;2023-06-10T10:20:15;4.42;;;4.05;;
27895;SDS011;15241;48.374;10.876;2023-06-10T10:25:18;5.33;;;4.83;;
27895;SDS011;15241;48.374;10.876;2023-06-10T10:30:19;4.70;;;4.30;;
27895;SDS011;15241;48.374;10.876;2023-06-10T10:35:21;4.92;;;4.53;;
27895;SDS011;15241;48.374;10.876;2023-06-10T10:40:20;4.90;;;4.50;;
27895;SDS011;15241;48.374;10.876;2023-06-10T10:45:21;7.58;;;4.80;;
27895;SDS011;15241;48.374;10.876;2023-06-10T10:50:20;5.12;;;4.70;;
27895;SDS011;15241;48.374;10.876;2023-06-10T10:55:19;5.30;;;4.65;;
27895;SDS011;15241;48.374;10.876;2023-06-10T11:00:24;6.37;;;5.37;;
27895;SDS011;15241;48.374;10.876;2023-06-10T11:05:36;6.30;;;5.70;;
27895;SDS011;15241;48.374;10.876;2023-06-10T11:10:37;5.30;;;4.85;;
27895;SDS011;15241;48.374;10.876;2023-06-10T11:15:39;5.03;;;4.62;;
27895;SDS011;15241;48.374;10.876;2023-06-10T11:20:43;5.08;;;4.58;;
27895;SDS011;15241;48.374;10.876;2023-06-10T11:25:44;5.10;;;4.67;;
27895;SDS011;15241;48.374;10.876;2023-06-10T11:30:45;5.47;;;4.85;;
27895;SDS011;15241;48.374;10.876;2023-06-10T11:35:45;5.00;;;4.60;;
27895;SDS011;15241;48.374;10.876;2023-06-10T11:40:46;5.17;;;4.78;;
27895;SDS011;15241;48.374;10.876;2023-06-10T11:45:46;5.23;;;4.63;;
27895;SDS011;15241;48.374;10.876;2023-06-10T11:50:46;6.87;;;5.33;;
27895;SDS011;15241;48.374;10.876;2023-06-10T11:55:46;5.45;;;4.97;;
27895;SDS011;15241;48.374;10.876;2023-06-10T12:00:46;4.70;;;4.30;;
27895;SDS011;15241;48.374;10.876;2023-06-10T12:05:56;7.67;;;6.10;;
27895;SDS011;15241;48.374;10.876;2023-06-10T12:10:56;7.00;;;5.67;;
27895;SDS011;15241;48.374;10.876;2023-06-10T12:16:05;5.78;;;5.10;;
27895;SDS011;15241;48.374;10.876;2023-06-10T12:21:15;5.45;;;5.03;;
27895;SDS011;15241;48.374;10.876;2023-06-10T12:26:18;4.92;;;4.47;;
27895;SDS011;15241;48.374;10.876;2023-06-10T12:31:19;5.17;;;4.62;;
27895;SDS011;15241;48.374;10.876;2023-06-10T12:36:18;5.22;;;4.72;;
27895;SDS011;15241;48.374;10.876;2023-06-10T12:41:17;5.92;;;4.92;;
27895;SDS011;15241;48.374;10.876;2023-06-10T12:46:17;5.58;;;4.37;;
27895;SDS011;15241;48.374;10.876;2023-06-10T12:51:16;5.12;;;4.55;;
27895;SDS011;15241;48.374;10.876;2023-06-10T12:56:15;4.65;;;4.20;;
27895;SDS011;15241;48.374;10.876;2023-06-10T13:01:14;5.00;;;4.50;;
27895;SDS011;15241;48.374;10.876;2023-06-10T13:06:13;4.65;;;4.25;;
27895;SDS011;15241;48.374;10.876;2023-06-10T13:11:12;4.67;;;4.08;;
27895;SDS011;15241;48.374;10.876;2023-06-10T13:16:11;5.78;;;5.17;;
27895;SDS011;15241;48.374;10.876;2023-06-10T13:21:09;5.28;;;3.92;;
27895;SDS011;15241;48.374;10.876;2023-06-10T13:26:08;4.22;;;3.92;;
27895;SDS011;15241;48.374;10.876;2023-06-10T13:31:07;3.87;;;3.58;;
27895;SDS011;15241;48.374;10.876;2023-06-10T13:36:06;3.98;;;3.67;;
27895;SDS011;15241;48.374;10.876;2023-06-10T13:41:05;5.05;;;3.65;;
27895;SDS011;15241;48.374;10.876;2023-06-10T13:46:04;4.60;;;3.65;;
27895;SDS011;15241;48.374;10.876;2023-06-10T13:51:03;4.37;;;3.87;;
27895;SDS011;15241;48.374;10.876;2023-06-10T13:56:10;4.05;;;3.75;;
27895;SDS011;15241;48.374;10.876;2023-06-10T14:01:09;4.53;;;3.95;;
27895;SDS011;15241;48.374;10.876;2023-06-10T14:06:08;3.47;;;3.17;;
27895;SDS011;15241;48.374;10.876;2023-06-10T14:11:07;3.70;;;3.30;;
27895;SDS011;15241;48.374;10.876;2023-06-10T14:16:06;3.60;;;2.95;;
27895;SDS011;15241;48.374;10.876;2023-06-10T14:21:05;3.27;;;3.00;;
27895;SDS011;15241;48.374;10.876;2023-06-10T14:26:04;2.90;;;2.70;;
27895;SDS011;15241;48.374;10.876;2023-06-10T14:31:03;3.00;;;2.80;;
27895;SDS011;15241;48.374;10.876;2023-06-10T14:36:02;3.33;;;2.98;;
27895;SDS011;15241;48.374;10.876;2023-06-10T14:41:01;2.60;;;2.40;;
27895;SDS011;15241;48.374;10.876;2023-06-10T14:46:00;3.37;;;2.87;;
27895;SDS011;15241;48.374;10.876;2023-06-10T14:50:59;3.00;;;2.70;;
27895;SDS011;15241;48.374;10.876;2023-06-10T14:56:06;3.30;;;2.72;;
27895;SDS011;15241;48.374;10.876;2023-06-10T15:01:05;4.33;;;3.50;;
27895;SDS011;15241;48.374;10.876;2023-06-10T15:06:04;3.60;;;3.30;;
27895;SDS011;15241;48.374;10.876;2023-06-10T15:11:03;4.80;;;3.17;;
27895;SDS011;15241;48.374;10.876;2023-06-10T15:16:02;3.17;;;2.87;;
27895;SDS011;15241;48.374;10.876;2023-06-10T15:21:02;3.22;;;2.92;;
27895;SDS011;15241;48.374;10.876;2023-06-10T15:26:01;3.30;;;3.05;;
27895;SDS011;15241;48.374;10.876;2023-06-10T15:31:00;4.08;;;3.77;;
27895;SDS011;15241;48.374;10.876;2023-06-10T15:35:59;3.72;;;3.27;;
27895;SDS011;15241;48.374;10.876;2023-06-10T15:40:57;3.77;;;3.40;;
27895;SDS011;15241;48.374;10.876;2023-06-10T15:45:56;3.35;;;3.08;;
27895;SDS011;15241;48.374;10.876;2023-06-10T15:50:55;3.30;;;3.00;;
27895;SDS011;15241;48.374;10.876;2023-06-10T15:55:54;4.50;;;3.27;;
27895;SDS011;15241;48.374;10.876;2023-06-10T16:00:53;3.67;;;3.37;;
27895;SDS011;15241;48.374;10.876;2023-06-10T16:05:52;4.12;;;3.72;;
27895;SDS011;15241;48.374;10.876;2023-06-10T16:10:51;4.00;;;3.70;;
27895;SDS011;15241;48.374;10.876;2023-06-10T16:15:50;3.27;;;2.92;;
27895;SDS011;15241;48.374;10.876;2023-06-10T16:20:49;3.52;;;3.15;;
27895;SDS011;15241;48.374;10.876;2023-06-10T16:25:48;4.20;;;3.70;;
27895;SDS011;15241;48.374;10.876;2023-06-10T16:30:47;4.20;;;3.90;;
27895;SDS011;15241;48.374;10.876;2023-06-10T16:35:46;4.75;;;4.05;;
27895;SDS011;15241;48.374;10.876;2023-06-10T16:40:45;4.85;;;4.30;;
27895;SDS011;15241;48.374;10.876;2023-06-10T16:45:43;5.40;;;4.40;;
27895;SDS011;15241;48.374;10.876;2023-06-10T16:50:42;4.70;;;4.30;;
27895;SDS011;15241;48.374;10.876;2023-06-10T16:55:41;3.90;;;3.60;;
27895;SDS011;15241;48.374;10.876;2023-06-10T17:00:40;4.50;;;3.90;;
27895;SDS011;15241;48.374;10.876;2023-06-10T17:05:39;5.83;;;3.58;;
27895;SDS011;15241;48.374;10.876;2023-06-10T17:10:38;3.65;;;3.35;;
27895;SDS011;15241;48.374;10.876;2023-06-10T17:15:37;4.42;;;4.03;;
27895;SDS011;15241;48.374;10.876;2023-06-10T17:20:36;4.10;;;3.70;;
27895;SDS011;15241;48.374;10.876;2023-06-10T17:25:35;4.58;;;4.17;;
27895;SDS011;15241;48.374;10.876;2023-06-10T17:30:34;8.60;;;5.67;;
27895;SDS011;15241;48.374;10.876;2023-06-10T17:35:33;6.90;;;5.92;;
27895;SDS011;15241;48.374;10.876;2023-06-10T17:40:32;5.05;;;4.08;;
27895;SDS011;15241;48.374;10.876;2023-06-10T17:45:31;5.70;;;3.65;;
27895;SDS011;15241;48.374;10.876;2023-06-10T17:50:30;3.87;;;3.47;;
27895;SDS011;15241;48.374;10.876;2023-06-10T17:55:29;4.47;;;3.58;;
27895;SDS011;15241;48.374;10.876;2023-06-10T18:00:29;3.72;;;3.42;;
27895;SDS011;15241;48.374;10.876;2023-06-10T18:05:28;4.00;;;3.70;;
27895;SDS011;15241;48.374;10.876;2023-06-10T18:10:27;4.42;;;4.03;;
27895;SDS011;15241;48.374;10.876;2023-06-10T18:15:26;4.17;;;3.40;;
27895;SDS011;15241;48.374;10.876;2023-06-10T18:20:25;5.35;;;4.00;;
27895;SDS011;15241;48.374;10.876;2023-06-10T18:25:24;3.90;;;3.60;;
27895;SDS011;15241;48.374;10.876;2023-06-10T18:30:23;5.55;;;4.30;;
27895;SDS011;15241;48.374;10.876;2023-06-10T18:35:22;4.92;;;4.30;;
27895;SDS011;15241;48.374;10.876;2023-06-10T18:40:21;4.67;;;3.90;;
27895;SDS011;15241;48.374;10.876;2023-06-10T18:45:28;4.65;;;3.92;;
27895;SDS011;15241;48.374;10.876;2023-06-10T18:50:27;4.90;;;3.85;;
27895;SDS011;15241;48.374;10.876;2023-06-10T18:55:26;5.90;;;4.35;;
27895;SDS011;15241;48.374;10.876;2023-06-10T19:00:25;4.25;;;3.85;;
27895;SDS011;15241;48.374;10.876;2023-06-10T19:05:24;4.30;;;3.90;;
27895;SDS011;15241;48.374;10.876;2023-06-10T19:10:24;4.42;;;4.00;;
27895;SDS011;15241;48.374;10.876;2023-06-10T19:15:23;4.28;;;3.95;;
27895;SDS011;15241;48.374;10.876;2023-06-10T19:20:22;4.87;;;4.47;;
27895;SDS011;15241;48.374;10.876;2023-06-10T19:25:21;6.00;;;5.05;;
27895;SDS011;15241;48.374;10.876;2023-06-10T19:30:20;6.80;;;5.05;;
27895;SDS011;15241;48.374;10.876;2023-06-10T19:35:19;5.45;;;4.95;;
27895;SDS011;15241;48.374;10.876;2023-06-10T19:40:18;4.45;;;4.05;;
27895;SDS011;15241;48.374;10.876;2023-06-10T19:45:16;4.97;;;4.47;;
27895;SDS011;15241;48.374;10.876;2023-06-10T19:50:15;5.00;;;4.42;;
27895;SDS011;15241;48.374;10.876;2023-06-10T19:55:14;5.12;;;4.62;;
27895;SDS011;15241;48.374;10.876;2023-06-10T20:00:14;5.80;;;4.60;;
27895;SDS011;15241;48.374;10.876;2023-06-10T20:05:13;5.75;;;4.80;;
27895;SDS011;15241;48.374;10.876;2023-06-10T20:10:12;5.15;;;4.47;;
27895;SDS011;15241;48.374;10.876;2023-06-10T20:15:11;4.97;;;4.47;;
27895;SDS011;15241;48.374;10.876;2023-06-10T20:20:11;7.97;;;4.78;;
27895;SDS011;15241;48.374;10.876;2023-06-10T20:25:10;4.35;;;3.95;;
27895;SDS011;15241;48.374;10.876;2023-06-10T20:30:10;5.97;;;4.62;;
27895;SDS011;15241;48.374;10.876;2023-06-10T20:35:11;4.70;;;4.30;;
27895;SDS011;15241;48.374;10.876;2023-06-10T20:40:13;6.30;;;4.87;;
27895;SDS011;15241;48.374;10.876;2023-06-10T20:45:12;5.45;;;4.33;;
27895;SDS011;15241;48.374;10.876;2023-06-10T20:50:11;5.53;;;5.03;;
27895;SDS011;15241;48.374;10.876;2023-06-10T20:55:10;5.30;;;4.85;;
27895;SDS011;15241;48.374;10.876;2023-06-10T21:00:10;6.80;;;4.95;;
27895;SDS011;15241;48.374;10.876;2023-06-10T21:05:09;7.12;;;5.30;;
27895;SDS011;15241;48.374;10.876;2023-06-10T21:10:09;7.15;;;5.90;;
27895;SDS011;15241;48.374;10.876;2023-06-10T21:15:08;6.65;;;5.50;;
27895;SDS011;15241;48.374;10.876;2023-06-10T21:20:09;6.75;;;5.37;;
27895;SDS011;15241;48.374;10.876;2023-06-10T21:30:15;9.38;;;5.95;;
27895;SDS011;15241;48.374;10.876;2023-06-10T21:35:14;5.85;;;5.33;;
27895;SDS011;15241;48.374;10.876;2023-06-10T21:40:13;6.92;;;6.22;;
27895;SDS011;15241;48.374;10.876;2023-06-10T21:45:13;7.40;;;5.90;;
27895;SDS011;15241;48.374;10.876;2023-06-10T21:50:12;7.37;;;6.15;;
27895;SDS011;15241;48.374;10.876;2023-06-10T21:55:11;6.80;;;6.10;;
27895;SDS011;15241;48.374;10.876;2023-06-10T22:00:11;8.83;;;6.05;;
27895;SDS011;15241;48.374;10.876;2023-06-10T22:05:11;7.87;;;6.58;;
27895;SDS011;15241;48.374;10.876;2023-06-10T22:10:10;6.90;;;5.95;;
27895;SDS011;15241;48.374;10.876;2023-06-10T22:15:10;10.00;;;5.87;;
27895;SDS011;15241;48.374;10.876;2023-06-10T22:20:10;8.73;;;6.42;;
27895;SDS011;15241;48.374;10.876;2023-06-10T22:25:10;7.17;;;6.47;;
27895;SDS011;15241;48.374;10.876;2023-06-10T22:30:09;7.28;;;6.55;;
27895;SDS011;15241;48.374;10.876;2023-06-10T22:35:10;6.55;;;5.92;;
27895;SDS011;15241;48.374;10.876;2023-06-10T22:40:10;6.87;;;6.08;;
27895;SDS011;15241;48.374;10.876;2023-06-10T22:45:09;9.38;;;6.45;;
27895;SDS011;15241;48.374;10.876;2023-06-10T22:50:09;6.83;;;6.22;;
27895;SDS011;15241;48.374;10.876;2023-06-10T22:55:08;7.78;;;6.87;;
27895;SDS011;15241;48.374;10.876;2023-06-10T23:00:08;7.22;;;6.53;;
27895;SDS011;15241;48.374;10.876;2023-06-10T23:05:10;8.88;;;6.25;;
27895;SDS011;15241;48.374;10.876;2023-06-10T23:10:09;7.90;;;6.53;;
27895;SDS011;15241;48.374;10.876;2023-06-10T23:15:08;8.10;;;5.90;;
27895;SDS011;15241;48.374;10.876;2023-06-10T23:20:09;6.80;;;5.33;;
27895;SDS011;15241;48.374;10.876;2023-06-10T23:25:09;6.45;;;5.85;;
27895;SDS011;15241;48.374;10.876;2023-06-10T23:30:09;7.05;;;6.35;;
27895;SDS011;15241;48.374;10.876;2023-06-10T23:35:09;7.12;;;6.25;;
27895;SDS011;15241;48.374;10.876;2023-06-10T23:40:10;6.55;;;5.87;;
27895;SDS011;15241;48.374;10.876;2023-06-10T23:45:10;7.03;;;5.95;;
27895;SDS011;15241;48.374;10.876;2023-06-10T23:50:09;6.80;;;6.10;;
27895;SDS011;15241;48.374;10.876;2023-06-10T23:55:09;6.58;;;5.85;;
